Newark Liberty International Airport
KEWR : now visible

Airfield :











YOU CAN JOIN US ON...

 
LOGIN :

Register | Disclaimer

   EN    FR    IT 

 









Legend :    VFR   Marginal VFR   IFR   Intensive IFR   Very Intensive IFR
Visi :
Ceiling :
>= 8 km
>= 3000ft
5 to 8 km
1000 to 3000 ft
1500m to 5 km
500 to 1000 ft
800 to 1500m
200 to 500 ft
< 800m
< 200 ft
Symbols :   Thunderstorms  Fog  Heavy snow  Heavy precipitations  Wind > 20 kt







- Airport Elevation : 18 ft
- IATA code : EWR


KEWR - Newark Liberty International

CURRENT METAR :
  • 190951Z 28006KT 10SM FEW007 FEW012 SCT140 BKN180 BKN250 23/21 A2999 RMK AO2 SLP155 T02330211

EXPIRED METARs :
  • 190934Z 25005KT 10SM FEW007 FEW012 SCT180 BKN250 23/21 A2998 RMK AO2 T02330211
  • 190851Z 25005KT 10SM FEW010 SCT018 BKN200 BKN250 24/20 A2998 RMK AO2 SLP150 T02390200 53010
  • 190845Z 25003KT 10SM SCT012 SCT018 BKN200 BKN250 23/20 A2997 RMK AO2
  • 190751Z 31003KT 10SM BKN012 BKN018 BKN200 OVC250 24/19 A2997 RMK AO2 SLP147 T02390194
  • 190735Z 30005KT 10SM SCT012 BKN018 BKN200 BKN250 24/19 A2996 RMK AO2 T02390194

TAF KEWR
Valid from the 19 at 09:00 until the 20 at 12:00 UTC


190836Z 1909/2012 21004KT P6SM SCT015 SCT030
TEMPO 1909/1912 BKN012
FM191300 24005KT P6SM SCT040 BKN250
FM191800 18009KT P6SM SCT040 SCT250
FM192000 17011KT P6SM SCT040 SCT250
PROB30 1920/1924 TSRA BKN040CB
FM200200 24006KT P6SM FEW020 SCT040
No reported NOTAMs for that airfield.



MET'MAP, your aeronautical weather chart ! - Copyright ORBIFLY December 2007 - Disclaimer

ORBIFLY MET'MAP TEAM :

Programming & Development : Alexandra Zaïnal
Concept & Development : Baudouin d'Aumeries
Co-Development & Prog : Marc-Olivier Méhu
Technical & hardware support : Manuel Goepfert

Contact : metmap@orbifly.com




SOURCES & CREDITS :

   NOAA       Earth
Advisory